Blanch, North Carolina
Current Conditions -  °F | °C
As of 10:53 AM on Wednesday 28 Jan 2015 (Local Time) from KDAN Reporting Station
Clear Clear  
Wind Chill: 28°   Ceiling: Unl
Heat Index: 36°   Visibility: 10mi
Dew Point: 15°   Wind: 10mph
Humidity: 43%   Direction: 320°NW
Pressure: 30.27"   Gusts: NA
Location:  36.51°N, 79.3°W
Report Text: KDAN 281553Z AUTO 32009KT 290V350 10SM CLR 02/M09 A3027 RMK AO2 SLP248 T00221094
Loading
Personal Weather Stations






























Interactive Weather Map New forecast layout! Learn more

10-Day Weather Forecast

Advertisements
Track Severe Weather on mobile